Time;durP1;ratioP1;P1;durP2;ratioP2;P2;SDS_P1;SDS_P2;PMS_P1;PMS_P2;Temp;Humidity;BMP_temperature;BMP_pressure;BME280_temperature;BME280_humidity;BME280_pressure;Samples;Min_cycle;Max_cycle;Signal;HPM_P1;HPM_P2
2023/03/25 00:01:50;;;;;;;16.33;10.02;;;;;;;11.12;81.75;100100.03;5051917;28;20499;-48
2023/03/25 00:04:16;;;;;;;19.05;10.35;;;;;;;11.07;80.77;100100.22;5051942;28;20395;-47
2023/03/25 00:06:41;;;;;;;17.30;9.90;;;;;;;11.04;81.69;100098.91;5051814;28;20044;-45
2023/03/25 00:09:07;;;;;;;18.80;10.27;;;;;;;11.00;81.71;100095.16;5051616;28;20468;-45
2023/03/25 00:11:32;;;;;;;18.58;10.30;;;;;;;11.10;83.00;100099.53;5051795;28;20029;-46
2023/03/25 00:13:57;;;;;;;15.68;9.93;;;;;;;11.12;81.72;100099.22;5051997;28;20033;-45
2023/03/25 00:16:23;;;;;;;18.38;9.90;;;;;;;11.04;80.73;100095.31;5050441;28;20124;-45
2023/03/25 00:18:48;;;;;;;16.00;9.90;;;;;;;11.06;81.08;100107.69;5044501;28;20040;-45
2023/03/25 00:21:14;;;;;;;17.20;10.10;;;;;;;11.04;80.62;100101.69;5051816;28;20076;-44
2023/03/25 00:23:41;;;;;;;17.92;10.27;;;;;;;11.08;83.02;100110.16;5050437;28;20040;-48
2023/03/25 00:26:06;;;;;;;17.30;10.27;;;;;;;11.08;82.17;100110.16;5051909;28;20032;-48
2023/03/25 00:28:34;;;;;;;18.63;10.18;;;;;;;11.04;80.78;100114.69;5051683;28;20400;-46
2023/03/25 00:31:11;;;;;;;18.55;10.20;;;;;;;10.98;80.80;100110.47;5051657;28;20036;-45
2023/03/25 00:33:36;;;;;;;18.25;9.73;;;;;;;11.04;80.98;100109.16;5055777;28;20025;-45
2023/03/25 00:36:04;;;;;;;18.13;10.30;;;;;;;11.03;80.29;100113.06;5055360;28;20106;-45
2023/03/25 00:38:34;;;;;;;18.42;10.02;;;;;;;11.02;79.94;100100.38;5055049;28;20033;-47
2023/03/25 00:41:08;;;;;;;16.15;10.13;;;;;;;11.05;80.03;100108.03;5055429;28;20514;-43
2023/03/25 00:43:33;;;;;;;18.95;10.57;;;;;;;11.07;80.96;100097.44;5055272;28;20033;-45
2023/03/25 00:45:59;;;;;;;19.00;10.10;;;;;;;11.07;79.52;100109.31;5055093;28;20025;-48
2023/03/25 00:48:26;;;;;;;15.95;9.32;;;;;;;11.09;80.05;100097.94;5053948;28;20049;-45
2023/03/25 00:50:51;;;;;;;19.63;9.48;;;;;;;11.05;78.79;100102.50;5037540;28;20017;-48
2023/03/25 00:53:16;;;;;;;15.70;9.50;;;;;;;11.05;79.15;100108.03;5055477;28;20036;-48
2023/03/25 00:55:42;;;;;;;18.55;10.20;;;;;;;11.03;79.74;100107.53;5055049;28;20541;-47
2023/03/25 00:58:07;;;;;;;18.23;10.70;;;;;;;10.99;79.09;100107.38;5055272;28;20064;-48
2023/03/25 01:00:33;;;;;;;17.52;10.00;;;;;;;11.01;80.22;100109.81;5054764;28;20040;-48
2023/03/25 01:03:00;;;;;;;16.52;9.93;;;;;;;10.99;79.37;100112.91;5054663;28;20495;-44
2023/03/25 01:05:26;;;;;;;17.70;10.43;;;;;;;11.01;80.58;100107.03;5054813;28;20043;-45
2023/03/25 01:07:51;;;;;;;17.48;10.00;;;;;;;10.98;79.93;100102.97;5054987;28;20412;-47
2023/03/25 01:10:17;;;;;;;20.48;10.40;;;;;;;11.01;80.37;100105.09;5054834;28;20464;-44
2023/03/25 01:12:42;;;;;;;17.95;9.80;;;;;;;11.02;80.18;100103.13;5054680;28;20033;-45
2023/03/25 01:15:09;;;;;;;17.13;9.80;;;;;;;11.01;79.73;100113.41;5054716;28;20021;-44
2023/03/25 01:17:35;;;;;;;18.08;9.68;;;;;;;11.04;79.94;100100.84;5050045;28;20740;-43
2023/03/25 01:20:00;;;;;;;18.75;9.80;;;;;;;10.98;79.34;100100.22;5051872;28;20029;-45
2023/03/25 01:22:25;;;;;;;16.35;10.10;;;;;;;11.02;80.23;100103.13;5054604;28;20044;-44
2023/03/25 01:24:50;;;;;;;16.83;10.18;;;;;;;10.98;79.86;100091.09;5054442;28;20032;-43
2023/03/25 01:27:16;;;;;;;16.73;10.55;;;;;;;10.99;79.00;100101.03;5054301;28;20025;-43
2023/03/25 01:29:41;;;;;;;16.35;10.15;;;;;;;10.98;79.03;100100.22;5054376;28;20021;-45
2023/03/25 01:32:07;;;;;;;17.70;9.98;;;;;;;10.95;79.84;100106.41;5054305;28;20028;-45
2023/03/25 01:34:37;;;;;;;18.42;10.13;;;;;;;10.93;79.74;100106.72;5054148;28;20025;-48
2023/03/25 01:37:02;;;;;;;16.50;10.07;;;;;;;10.98;80.59;100100.22;5054426;28;20028;-45
2023/03/25 01:39:27;;;;;;;18.08;10.20;;;;;;;10.95;80.43;100097.28;5052899;28;20032;-46
2023/03/25 01:41:54;;;;;;;17.10;10.70;;;;;;;10.97;80.51;100103.31;5054091;28;20472;-46
2023/03/25 01:44:19;;;;;;;16.83;10.40;;;;;;;10.95;81.52;100100.06;5052677;28;20040;-47
2023/03/25 01:46:48;;;;;;;17.20;10.20;;;;;;;10.90;80.80;100095.50;5053873;28;20029;-46
2023/03/25 01:49:22;;;;;;;17.58;10.43;;;;;;;10.88;81.07;100095.84;5054021;28;20114;-46
2023/03/25 01:51:53;;;;;;;17.65;10.50;;;;;;;10.87;80.40;100104.44;5054244;28;20029;-47
2023/03/25 01:54:18;;;;;;;17.98;10.40;;;;;;;10.88;82.07;100100.53;5053902;28;20032;-47
2023/03/25 01:56:46;;;;;;;16.17;10.45;;;;;;;10.84;81.96;100099.59;5054044;28;20468;-48
2023/03/25 01:59:17;;;;;;;17.13;10.18;;;;;;;10.84;82.88;100096.81;5053912;28;20032;-47
2023/03/25 02:01:44;;;;;;;16.15;10.30;;;;;;;10.74;82.65;100082.19;5052544;28;20043;-46
2023/03/25 02:04:11;;;;;;;16.65;10.55;;;;;;;10.75;83.32;100085.75;5054057;28;20116;-48
2023/03/25 02:06:39;;;;;;;16.45;10.95;;;;;;;10.72;83.70;100075.34;5053696;28;20115;-48
2023/03/25 02:09:07;;;;;;;16.63;10.38;;;;;;;10.73;83.84;100088.84;5052559;28;20033;-48
2023/03/25 02:11:33;;;;;;;18.27;10.85;;;;;;;10.66;83.15;100083.00;5053641;28;20040;-47
2023/03/25 02:14:03;;;;;;;16.50;10.65;;;;;;;10.63;82.77;100094.69;5053703;28;20025;-47
2023/03/25 02:16:31;;;;;;;17.73;10.88;;;;;;;10.62;83.77;100087.53;5052812;28;20032;-43
2023/03/25 02:19:21;;;;;;;16.13;11.00;;;;;;;10.65;83.79;100077.78;5046867;28;20025;-48
2023/03/25 02:22:04;;;;;;;16.50;10.05;;;;;;;10.64;82.94;100081.66;5053403;28;20051;-45
2023/03/25 02:25:12;;;;;;;16.92;10.57;;;;;;;10.67;83.05;100081.84;5053581;28;20091;-45
2023/03/25 02:27:50;;;;;;;18.70;10.38;;;;;;;10.66;82.67;100076.63;5052798;28;20055;-47
2023/03/25 02:30:53;;;;;;;17.92;10.82;;;;;;;10.70;83.20;100080.38;5053232;28;20036;-43
2023/03/25 02:33:36;;;;;;;17.45;10.80;;;;;;;10.68;83.79;100091.75;5053328;28;20538;-44
2023/03/25 02:36:13;;;;;;;16.30;10.63;;;;;;;10.65;84.75;100086.06;5052793;28;20036;-47
2023/03/25 02:39:02;;;;;;;15.30;11.00;;;;;;;10.61;85.41;100075.69;5053299;28;20279;-46
2023/03/25 02:41:38;;;;;;;16.83;11.00;;;;;;;10.56;85.17;100078.59;5053088;28;20037;-47
2023/03/25 02:44:10;;;;;;;18.20;11.25;;;;;;;10.54;85.50;100071.75;5053229;28;20549;-47
2023/03/25 02:46:39;;;;;;;15.93;10.50;;;;;;;10.50;85.96;100070.75;5051734;28;20025;-44
2023/03/25 02:49:12;;;;;;;16.83;10.90;;;;;;;10.55;88.18;100065.88;5053032;28;20404;-44
2023/03/25 02:51:45;;;;;;;17.85;11.20;;;;;;;10.52;86.23;100074.84;5053470;28;20033;-44
2023/03/25 02:54:14;;;;;;;17.85;11.20;;;;;;;10.48;85.25;100062.00;5052415;28;20040;-45
2023/03/25 02:56:43;;;;;;;16.40;10.55;;;;;;;10.49;84.83;100060.84;5052951;28;20068;-46
2023/03/25 02:59:13;;;;;;;17.30;10.60;;;;;;;10.50;84.75;100054.19;5052792;28;20025;-45
2023/03/25 03:01:39;;;;;;;17.63;11.80;;;;;;;10.48;84.56;100060.03;5052980;28;20035;-47
2023/03/25 03:04:05;;;;;;;18.13;10.80;;;;;;;10.42;84.40;100053.84;5052808;28;20487;-43
2023/03/25 03:06:37;;;;;;;17.42;11.00;;;;;;;10.41;84.88;100054.19;5052614;28;20147;-44
2023/03/25 03:09:32;;;;;;;17.15;11.10;;;;;;;10.45;85.28;100050.44;5053119;28;20060;-44
2023/03/25 03:12:12;;;;;;;18.15;10.60;;;;;;;10.51;87.07;100059.41;5053187;28;20037;-44
2023/03/25 03:15:05;;;;;;;17.10;11.05;;;;;;;10.54;86.43;100046.88;5053315;28;20033;-44
2023/03/25 03:17:48;;;;;;;17.17;11.30;;;;;;;10.53;85.22;100050.78;5051380;28;20032;-42
2023/03/25 03:20:31;;;;;;;17.42;10.80;;;;;;;10.56;85.00;100056.47;5051971;28;20025;-44
2023/03/25 03:23:12;;;;;;;18.08;11.30;;;;;;;10.47;84.96;100063.94;5052850;28;20028;-46
2023/03/25 03:26:18;;;;;;;18.52;11.02;;;;;;;10.47;85.79;100063.94;5052633;28;20450;-45
2023/03/25 03:28:48;;;;;;;18.85;11.55;;;;;;;10.43;86.90;100076.81;5050932;28;20041;-46
2023/03/25 03:31:24;;;;;;;15.32;11.10;;;;;;;10.40;87.09;100074.69;5052066;28;20582;-46
2023/03/25 03:33:56;;;;;;;18.08;11.00;;;;;;;10.36;87.43;100062.59;5052640;28;20037;-42
2023/03/25 03:36:26;;;;;;;19.58;10.75;;;;;;;10.38;88.16;100065.88;5052404;28;20029;-44
2023/03/25 03:38:58;;;;;;;19.38;11.35;;;;;;;10.26;88.48;100064.53;5052190;28;20036;-43
2023/03/25 03:41:26;;;;;;;19.38;11.65;;;;;;;10.25;88.59;100076.72;5052166;28;20150;-44
2023/03/25 03:44:01;;;;;;;17.77;11.27;;;;;;;10.27;88.99;100081.94;5051712;28;20052;-44
2023/03/25 03:46:35;;;;;;;16.27;10.90;;;;;;;10.26;89.04;100077.56;5051875;28;20025;-43
2023/03/25 03:49:03;;;;;;;18.20;11.50;;;;;;;10.22;88.79;100069.09;5052036;28;20036;-43
2023/03/25 03:51:48;;;;;;;20.02;11.02;;;;;;;10.19;88.39;100060.63;5051926;28;20525;-44
2023/03/25 03:54:21;;;;;;;19.80;11.85;;;;;;;10.20;88.10;100053.97;5050706;28;20036;-48
2023/03/25 03:57:10;;;;;;;18.83;11.00;;;;;;;10.30;88.57;100065.53;5051812;28;20491;-47
2023/03/25 03:59:46;;;;;;;18.45;10.90;;;;;;;10.23;87.59;100061.59;5051926;28;20068;-48
2023/03/25 04:02:37;;;;;;;20.05;11.10;;;;;;;10.21;87.97;100052.81;5051733;28;20109;-48
2023/03/25 04:05:05;;;;;;;19.15;11.38;;;;;;;10.23;88.19;100054.16;5051548;28;20060;-45
2023/03/25 04:08:01;;;;;;;19.17;11.57;;;;;;;10.27;87.44;100066.16;5050858;28;20135;-47
2023/03/25 04:10:38;;;;;;;18.08;11.77;;;;;;;10.26;89.24;100047.94;5051372;28;20080;-43
2023/03/25 04:13:09;;;;;;;20.27;11.00;;;;;;;10.28;87.62;100056.75;5051684;28;20025;-44
2023/03/25 04:15:36;;;;;;;19.92;11.18;;;;;;;10.31;86.58;100063.56;5051796;28;20104;-43
2023/03/25 04:18:02;;;;;;;21.15;11.25;;;;;;;10.30;86.83;100065.53;5044330;28;20033;-42
2023/03/25 04:20:33;;;;;;;17.00;11.05;;;;;;;10.24;87.27;100057.72;5051524;28;20076;-43
2023/03/25 04:22:59;;;;;;;17.90;11.38;;;;;;;10.28;87.27;100061.47;5051590;28;20036;-45
2023/03/25 04:25:25;;;;;;;21.90;11.35;;;;;;;10.27;86.74;100054.31;5051886;28;20159;-46
2023/03/25 04:27:52;;;;;;;20.20;11.32;;;;;;;10.25;86.50;100062.09;5051455;28;20021;-45
2023/03/25 04:30:18;;;;;;;20.52;11.48;;;;;;;10.28;87.27;100067.00;5051301;28;20033;-44
2023/03/25 04:32:45;;;;;;;18.27;11.00;;;;;;;10.40;88.02;100066.38;5049833;28;20078;-44
2023/03/25 04:35:15;;;;;;;19.88;11.10;;;;;;;10.37;85.95;100067.84;5051614;28;20028;-47
2023/03/25 04:37:44;;;;;;;16.67;11.10;;;;;;;10.40;86.45;100069.16;5050266;28;20037;-47
2023/03/25 04:40:12;;;;;;;19.83;11.52;;;;;;;10.40;85.74;100074.69;5048889;28;20478;-46
2023/03/25 04:42:38;;;;;;;19.52;11.05;;;;;;;10.41;85.92;100062.47;5049126;28;20132;-48
2023/03/25 04:45:04;;;;;;;18.08;11.38;;;;;;;10.41;86.10;100068.00;5050623;28;20171;-44
2023/03/25 04:47:30;;;;;;;18.90;11.18;;;;;;;10.39;85.30;100076.59;5050077;28;20033;-46
2023/03/25 04:49:55;;;;;;;18.08;10.85;;;;;;;10.38;86.20;100075.00;5051041;28;20380;-43
2023/03/25 04:52:21;;;;;;;18.33;11.00;;;;;;;10.35;85.90;100078.38;5051091;28;20155;-47
2023/03/25 04:54:46;;;;;;;18.08;11.05;;;;;;;10.30;86.44;100076.59;5050044;28;20499;-44
2023/03/25 04:57:12;;;;;;;17.45;11.40;;;;;;;10.29;85.92;100060.34;5051237;28;20037;-45
2023/03/25 04:59:37;;;;;;;18.67;11.40;;;;;;;10.32;85.37;100073.50;5051244;28;20037;-45
2023/03/25 05:02:04;;;;;;;17.48;11.32;;;;;;;10.30;85.34;100079.34;5050954;28;20467;-46
2023/03/25 05:04:30;;;;;;;19.65;11.27;;;;;;;10.30;86.59;100067.47;5051328;28;20025;-43
2023/03/25 05:06:55;;;;;;;18.38;11.15;;;;;;;10.26;87.23;100069.25;5051106;28;20031;-44
2023/03/25 05:09:21;;;;;;;19.73;11.40;;;;;;;10.20;88.06;100067.81;5051254;28;20032;-45
2023/03/25 05:11:47;;;;;;;18.00;11.55;;;;;;;10.20;88.38;100076.91;5050974;28;20033;-44
2023/03/25 05:14:15;;;;;;;15.85;11.32;;;;;;;10.17;88.69;100071.19;5049861;28;20478;-44
2023/03/25 05:16:41;;;;;;;18.42;11.40;;;;;;;10.20;88.25;100071.38;5050898;28;20480;-44
2023/03/25 05:19:07;;;;;;;19.48;11.70;;;;;;;10.19;88.44;100080.78;5044962;28;20029;-42
2023/03/25 05:21:35;;;;;;;17.52;11.10;;;;;;;10.15;88.30;100075.09;5053584;28;20147;-45
2023/03/25 05:24:01;;;;;;;19.20;11.50;;;;;;;10.24;90.07;100079.81;5054459;28;20494;-43
2023/03/25 05:26:33;;;;;;;18.20;11.13;;;;;;;10.22;88.39;100079.31;5054652;28;20029;-42
2023/03/25 05:29:04;;;;;;;20.23;11.30;;;;;;;10.23;88.67;100078.19;5054588;28;20087;-42
2023/03/25 05:31:30;;;;;;;18.58;11.35;;;;;;;10.21;88.89;100074.94;5054329;28;20485;-43
2023/03/25 05:33:55;;;;;;;19.58;11.60;;;;;;;10.20;88.90;100074.13;5053075;28;20032;-43
2023/03/25 05:36:23;;;;;;;18.73;11.60;;;;;;;10.16;88.30;100078.66;5054416;28;20040;-44
2023/03/25 05:38:49;;;;;;;19.23;11.60;;;;;;;10.11;88.59;100076.06;5054618;28;20480;-44
2023/03/25 05:41:17;;;;;;;20.33;11.52;;;;;;;10.14;89.08;100080.97;5054344;28;20036;-44
2023/03/25 05:43:46;;;;;;;19.95;10.95;;;;;;;10.14;88.64;100090.06;5052892;28;20045;-43
2023/03/25 05:46:14;;;;;;;19.48;11.52;;;;;;;10.08;87.91;100080.28;5053028;28;20060;-43
2023/03/25 05:48:40;;;;;;;19.27;11.23;;;;;;;10.07;87.36;100080.59;5053936;28;20041;-44
2023/03/25 05:51:17;;;;;;;16.98;10.63;;;;;;;10.07;87.65;100078.66;5053946;28;20025;-43
2023/03/25 05:53:43;;;;;;;20.27;11.90;;;;;;;10.12;88.59;100094.28;5044762;28;20025;-46
2023/03/25 05:56:10;;;;;;;19.40;11.70;;;;;;;10.13;87.47;100087.63;5043238;28;20087;-44
2023/03/25 05:58:36;;;;;;;17.67;11.20;;;;;;;10.13;86.92;100099.47;5042856;28;20053;-46
2023/03/25 06:01:03;;;;;;;18.30;10.70;;;;;;;10.13;85.87;100110.53;5044434;28;20108;-47
2023/03/25 06:03:28;;;;;;;18.73;11.20;;;;;;;10.13;86.08;100106.97;5043145;28;20087;-44
2023/03/25 06:05:53;;;;;;;18.75;10.50;;;;;;;10.15;86.46;100101.94;5043531;28;20147;-45
2023/03/25 06:08:25;;;;;;;18.70;10.07;;;;;;;10.15;85.51;100113.00;5053023;28;20473;-46
2023/03/25 06:10:59;;;;;;;17.58;10.40;;;;;;;10.19;86.45;100102.09;5053407;28;20041;-47
2023/03/25 06:13:26;;;;;;;20.23;10.50;;;;;;;10.20;84.51;100100.97;5053623;28;20069;-43
2023/03/25 06:15:56;;;;;;;17.50;10.30;;;;;;;10.19;84.65;100094.63;5053670;28;20031;-44
2023/03/25 06:18:23;;;;;;;18.52;10.40;;;;;;;10.20;84.53;100106.50;5044693;28;20373;-44
2023/03/25 06:20:50;;;;;;;17.50;10.27;;;;;;;10.20;84.44;100118.34;5053333;28;20045;-44
2023/03/25 06:23:16;;;;;;;19.65;10.90;;;;;;;10.22;84.21;100112.50;5053297;28;20435;-44
2023/03/25 06:25:42;;;;;;;19.30;10.55;;;;;;;10.23;83.84;100101.13;5053284;28;20037;-45
2023/03/25 06:28:07;;;;;;;18.75;10.40;;;;;;;10.21;83.24;100116.41;5053355;28;20027;-43
2023/03/25 06:30:32;;;;;;;20.25;11.13;;;;;;;10.17;83.10;100102.41;5052276;28;20479;-43
2023/03/25 06:33:01;;;;;;;20.42;10.88;;;;;;;10.20;83.84;100109.25;5053571;28;20468;-44
2023/03/25 06:35:27;;;;;;;20.27;11.15;;;;;;;10.16;83.87;100111.84;5053548;28;20033;-45
2023/03/25 06:37:52;;;;;;;17.15;10.25;;;;;;;10.21;83.30;100103.41;5053341;28;20154;-45
2023/03/25 06:40:18;;;;;;;19.00;10.40;;;;;;;10.22;82.66;100099.50;5053418;28;20036;-48
2023/03/25 06:42:44;;;;;;;20.55;10.80;;;;;;;10.23;82.44;100112.19;5053236;28;20025;-44
2023/03/25 06:45:11;;;;;;;16.25;10.05;;;;;;;10.24;81.98;100110.22;5053446;28;20133;-45
2023/03/25 06:47:37;;;;;;;20.52;10.80;;;;;;;10.28;82.16;100114.78;5053401;28;20037;-44
2023/03/25 06:50:02;;;;;;;19.73;10.70;;;;;;;10.32;81.60;100128.78;5053113;28;20071;-45
2023/03/25 06:52:28;;;;;;;17.38;10.43;;;;;;;10.36;82.04;100120.66;5053197;28;20029;-44
2023/03/25 06:54:53;;;;;;;21.23;10.63;;;;;;;10.35;81.69;100119.84;5052925;28;20025;-48
2023/03/25 06:57:18;;;;;;;18.80;10.43;;;;;;;10.43;81.34;100121.84;5052876;28;20029;-45
2023/03/25 06:59:44;;;;;;;18.13;10.05;;;;;;;10.44;81.47;100128.19;5052993;28;20025;-45
2023/03/25 07:02:12;;;;;;;19.70;10.18;;;;;;;10.51;80.87;100127.72;5052864;28;20021;-48
2023/03/25 07:04:38;;;;;;;18.73;9.90;;;;;;;10.52;81.50;100135.69;5052886;28;20033;-47
2023/03/25 07:07:03;;;;;;;18.77;9.93;;;;;;;10.51;81.26;100116.66;5052698;28;20059;-44
2023/03/25 07:09:28;;;;;;;18.58;10.02;;;;;;;10.56;80.87;100122.84;5052609;28;20025;-43
2023/03/25 07:11:54;;;;;;;20.67;10.18;;;;;;;10.56;81.01;100117.31;5052569;28;20025;-44
2023/03/25 07:14:19;;;;;;;19.90;11.02;;;;;;;10.65;80.79;100113.72;5048786;28;20094;-45
2023/03/25 07:16:44;;;;;;;22.42;10.90;;;;;;;10.64;79.83;100118.47;5052728;28;20051;-45
2023/03/25 07:19:10;;;;;;;21.77;10.80;;;;;;;10.67;80.55;100103.16;5051213;28;20083;-46
2023/03/25 07:21:35;;;;;;;20.63;10.98;;;;;;;10.71;79.91;100127.09;5051191;28;20041;-46
2023/03/25 07:24:00;;;;;;;20.60;11.25;;;;;;;10.75;80.30;100107.88;5052324;28;20479;-47
2023/03/25 07:26:26;;;;;;;18.13;10.95;;;;;;;10.81;79.75;100131.50;5050639;28;20024;-47
2023/03/25 07:28:51;;;;;;;20.65;10.57;;;;;;;10.90;79.50;100125.94;5050303;28;20092;-47
2023/03/25 07:31:17;;;;;;;24.38;10.80;;;;;;;11.03;82.02;100119.44;5051871;28;20021;-44
2023/03/25 07:33:42;;;;;;;22.58;11.27;;;;;;;11.18;81.03;100142.19;5049729;28;20039;-47
2023/03/25 07:36:10;;;;;;;19.88;11.10;;;;;;;11.26;81.53;100126.72;5052091;28;20033;-46
2023/03/25 07:38:35;;;;;;;23.63;11.32;;;;;;;11.43;82.87;100132.22;5052148;28;20466;-45
2023/03/25 07:41:10;;;;;;;21.55;11.20;;;;;;;11.57;82.12;100142.31;5051738;28;20120;-47
2023/03/25 07:43:36;;;;;;;24.15;11.18;;;;;;;11.54;79.48;100136.28;5051979;28;20474;-44
2023/03/25 07:46:02;;;;;;;23.83;11.98;;;;;;;11.44;79.09;100144.09;5051954;28;20052;-44
2023/03/25 07:48:27;;;;;;;21.27;10.65;;;;;;;11.33;79.81;100147.25;5052130;28;20029;-47
2023/03/25 07:50:52;;;;;;;25.50;11.20;;;;;;;11.27;81.10;100143.00;5051630;28;20021;-45
2023/03/25 07:53:19;;;;;;;22.90;10.80;;;;;;;11.25;80.18;100142.50;5051959;28;20430;-47
2023/03/25 07:55:45;;;;;;;21.63;10.70;;;;;;;11.18;80.17;100151.34;5051107;28;20083;-47
2023/03/25 07:58:11;;;;;;;22.67;11.82;;;;;;;11.14;80.20;100158.66;5051711;28;20041;-47
2023/03/25 08:00:37;;;;;;;19.85;11.18;;;;;;;11.16;80.29;100156.38;5051727;28;20025;-47
2023/03/25 08:03:02;;;;;;;24.02;11.25;;;;;;;11.18;80.66;100162.41;5051901;28;20021;-45
2023/03/25 08:05:29;;;;;;;22.42;11.13;;;;;;;11.19;81.48;100166.78;5051849;28;20365;-47
2023/03/25 08:07:54;;;;;;;24.92;11.65;;;;;;;11.20;80.98;100159.31;5052395;28;20517;-47
2023/03/25 08:10:20;;;;;;;21.55;11.57;;;;;;;11.23;81.61;100164.19;5050490;28;20108;-47
2023/03/25 08:12:45;;;;;;;22.52;10.68;;;;;;;11.22;80.68;100157.84;5048738;28;20096;-48
2023/03/25 08:15:12;;;;;;;20.25;11.10;;;;;;;11.22;80.42;100168.91;5049824;28;20460;-45
2023/03/25 08:17:38;;;;;;;20.10;10.52;;;;;;;11.27;80.11;100169.91;5049741;28;20033;-47
2023/03/25 08:20:05;;;;;;;21.67;11.57;;;;;;;11.26;81.27;100176.56;5048501;28;20036;-45
2023/03/25 08:22:31;;;;;;;21.42;11.23;;;;;;;11.24;82.25;100182.44;5049677;28;20535;-42
2023/03/25 08:24:57;;;;;;;21.15;10.82;;;;;;;11.19;81.90;100186.16;5049897;28;20738;-44
2023/03/25 08:27:23;;;;;;;20.73;11.02;;;;;;;11.20;82.33;100187.00;5050502;28;20032;-42
2023/03/25 08:29:53;;;;;;;21.25;10.98;;;;;;;11.19;82.24;100194.47;5050117;28;20029;-44
2023/03/25 08:32:26;;;;;;;21.40;10.70;;;;;;;11.17;82.28;100179.34;5050431;28;20033;-42
2023/03/25 08:34:52;;;;;;;20.63;10.93;;;;;;;11.15;82.26;100173.31;5051613;28;20399;-43
2023/03/25 08:37:17;;;;;;;22.27;10.63;;;;;;;11.21;83.66;100183.88;5051613;28;20350;-44
2023/03/25 08:39:43;;;;;;;20.40;10.60;;;;;;;11.28;83.74;100194.47;5051929;28;20041;-43
2023/03/25 08:42:11;;;;;;;22.17;10.90;;;;;;;11.35;83.33;100180.94;5051606;28;20029;-43
2023/03/25 08:44:37;;;;;;;25.55;12.18;;;;;;;11.36;82.71;100198.38;5051452;28;20025;-43
2023/03/25 08:47:02;;;;;;;23.95;12.77;;;;;;;11.39;83.22;100184.69;5051665;28;20029;-43
2023/03/25 08:49:27;;;;;;;21.35;11.10;;;;;;;11.53;83.39;100180.91;5052042;28;20422;-43
2023/03/25 08:51:53;;;;;;;20.85;11.57;;;;;;;11.59;83.43;100201.78;5051987;28;20439;-44
2023/03/25 08:54:18;;;;;;;23.52;12.10;;;;;;;11.64;82.83;100187.72;5055502;28;20040;-44
2023/03/25 08:56:44;;;;;;;20.33;11.10;;;;;;;11.85;84.22;100192.56;5052046;28;20060;-43
2023/03/25 08:59:10;;;;;;;23.13;11.60;;;;;;;11.93;86.08;100197.28;5039014;28;20044;-44
2023/03/25 09:01:36;;;;;;;23.73;12.20;;;;;;;11.94;84.12;100184.25;5035309;28;20116;-43
2023/03/25 09:04:01;;;;;;;21.48;11.57;;;;;;;11.89;83.68;100192.72;5030137;28;20037;-45
2023/03/25 09:06:27;;;;;;;21.92;12.18;;;;;;;11.88;83.23;100188.31;5033741;28;20112;-46
2023/03/25 09:08:54;;;;;;;21.90;11.73;;;;;;;11.87;83.75;100184.75;5035282;28;20100;-43
2023/03/25 09:11:20;;;;;;;24.55;12.35;;;;;;;11.80;84.24;100193.56;5033700;28;20033;-46
2023/03/25 09:13:45;;;;;;;23.17;12.52;;;;;;;11.78;83.65;100179.22;5034593;28;20032;-44
2023/03/25 09:16:11;;;;;;;20.05;11.13;;;;;;;11.78;83.27;100168.13;5035024;28;20037;-43
2023/03/25 09:18:36;;;;;;;21.33;11.27;;;;;;;11.87;83.46;100181.97;5041024;28;20047;-42
2023/03/25 09:21:03;;;;;;;21.25;11.25;;;;;;;11.89;82.52;100173.31;5052807;28;20083;-42
2023/03/25 09:23:28;;;;;;;22.92;11.90;;;;;;;11.90;82.08;100181.31;5052124;28;20033;-44
2023/03/25 09:25:55;;;;;;;23.85;12.00;;;;;;;11.91;81.95;100173.81;5052274;28;20029;-44
2023/03/25 09:28:20;;;;;;;25.67;12.05;;;;;;;12.00;82.47;100172.66;5051162;28;20029;-44
2023/03/25 09:30:46;;;;;;;22.63;11.27;;;;;;;12.06;81.97;100178.03;5052215;28;20546;-44
2023/03/25 09:33:11;;;;;;;24.50;11.57;;;;;;;12.12;80.53;100171.97;5052238;28;20061;-43
2023/03/25 09:35:40;;;;;;;21.27;10.52;;;;;;;12.17;80.55;100179.28;5052035;28;20032;-44
2023/03/25 09:38:06;;;;;;;22.33;11.30;;;;;;;12.23;80.04;100172.41;5048093;28;20395;-45
2023/03/25 09:40:33;;;;;;;23.67;11.02;;;;;;;12.21;79.21;100160.03;5051203;28;20055;-44
2023/03/25 09:43:04;;;;;;;22.08;11.77;;;;;;;12.42;79.57;100168.38;5052724;28;20494;-44
2023/03/25 09:45:41;;;;;;;24.33;11.32;;;;;;;12.45;78.18;100176.03;5052386;28;20033;-44
2023/03/25 09:48:23;;;;;;;23.65;11.43;;;;;;;12.46;78.75;100191.53;5051264;28;20437;-44
2023/03/25 09:50:48;;;;;;;21.67;11.02;;;;;;;12.50;78.00;100186.13;5050145;28;20090;-43
2023/03/25 09:53:39;;;;;;;22.55;11.32;;;;;;;12.49;77.93;100185.31;5051491;28;20025;-44
2023/03/25 09:56:11;;;;;;;24.27;12.32;;;;;;;12.36;78.48;100197.47;5052097;28;20028;-43
2023/03/25 09:58:42;;;;;;;24.10;11.88;;;;;;;12.38;78.04;100197.91;5051554;28;20029;-45
2023/03/25 10:01:32;;;;;;;27.30;12.13;;;;;;;12.38;78.41;100209.84;5049848;28;20116;-44
2023/03/25 10:04:36;;;;;;;24.58;12.32;;;;;;;12.38;79.10;100198.75;5050420;28;20075;-45
2023/03/25 10:07:38;;;;;;;21.63;12.77;;;;;;;12.32;79.92;100191.78;5046989;28;20045;-44
2023/03/25 10:10:24;;;;;;;24.10;12.75;;;;;;;12.25;79.76;100205.34;5047208;28;20127;-45
2023/03/25 10:13:12;;;;;;;27.27;13.73;;;;;;;12.26;80.70;100204.19;5045187;28;20033;-44
2023/03/25 10:15:52;;;;;;;23.75;11.38;;;;;;;12.29;79.07;100209.06;5051902;28;20044;-45
2023/03/25 10:18:26;;;;;;;24.70;12.93;;;;;;;12.30;79.03;100207.94;5051614;28;20032;-44
2023/03/25 10:21:02;;;;;;;25.00;12.27;;;;;;;12.31;79.26;100209.56;5051390;28;20496;-44
2023/03/25 10:23:40;;;;;;;29.08;14.45;;;;;;;12.29;79.26;100218.19;5051579;28;20032;-45
2023/03/25 10:26:13;;;;;;;23.75;12.18;;;;;;;12.32;78.68;100223.09;5050092;28;20033;-46
2023/03/25 10:28:45;;;;;;;;;;;;;;;12.40;79.53;100226.16;5033814;28;20110;-45
2023/03/25 10:31:16;;;;;;;23.23;11.60;;;;;;;12.29;79.98;100215.41;5051323;28;20007;-44
2023/03/25 10:33:50;;;;;;;23.77;11.95;;;;;;;12.18;80.77;100230.81;5051498;28;20020;-45
2023/03/25 10:36:18;;;;;;;25.25;13.13;;;;;;;12.09;82.23;100232.81;5051560;28;20045;-43
2023/03/25 10:38:46;;;;;;;24.92;12.45;;;;;;;11.94;83.54;100223.84;5051376;28;20021;-44
2023/03/25 10:41:23;;;;;;;28.30;14.02;;;;;;;11.93;83.24;100229.72;5051062;28;20033;-43
2023/03/25 10:43:49;;;;;;;29.63;15.43;;;;;;;11.84;84.04;100224.19;5051091;28;20033;-44
2023/03/25 10:46:36;;;;;;;28.02;14.68;;;;;;;11.86;84.29;100231.03;5051004;28;20041;-44
2023/03/25 10:49:01;;;;;;;25.33;13.73;;;;;;;11.77;84.26;100232.22;5051182;28;20090;-43
2023/03/25 10:51:30;;;;;;;24.00;12.60;;;;;;;11.77;84.21;100232.22;5047579;28;20050;-42
2023/03/25 10:53:57;;;;;;;26.17;12.20;;;;;;;11.76;85.20;100239.69;5046802;28;20807;-43
2023/03/25 10:56:30;;;;;;;26.77;13.85;;;;;;;11.77;85.58;100240.53;5044307;28;20059;-43
2023/03/25 10:58:57;;;;;;;21.97;11.90;;;;;;;11.79;84.45;100233.50;5051558;28;20025;-43
2023/03/25 11:01:50;;;;;;;24.63;12.27;;;;;;;11.89;83.97;100245.38;5051909;28;20271;-44
2023/03/25 11:04:18;;;;;;;25.07;12.07;;;;;;;11.85;83.82;100229.41;5051501;28;20052;-44
2023/03/25 11:06:56;;;;;;;26.10;13.32;;;;;;;11.93;85.21;100229.72;5050064;28;20023;-44
2023/03/25 11:09:31;;;;;;;22.55;11.48;;;;;;;11.99;82.68;100229.25;5051516;28;20043;-42
2023/03/25 11:12:03;;;;;;;26.17;11.95;;;;;;;12.10;82.03;100228.88;5051662;28;20569;-42
2023/03/25 11:14:29;;;;;;;23.33;12.35;;;;;;;12.20;80.89;100231.28;5051686;28;20037;-44
2023/03/25 11:17:04;;;;;;;24.20;12.70;;;;;;;12.29;80.77;100225.72;5051315;28;20032;-43
2023/03/25 11:19:40;;;;;;;22.58;11.07;;;;;;;12.32;79.50;100228.63;5051514;28;20021;-44
2023/03/25 11:22:15;;;;;;;21.38;11.05;;;;;;;12.34;76.53;100222.75;5051744;28;20696;-45